sensor_id;sensor_type;location;lat;lon;timestamp;pressure;altitude;pressure_sealevel;temperature;humidity
29467;BME280;60968;37.490;-122.288;2023-02-03T00:00:13;99404.78;;;14.98;27.54
29467;BME280;60968;37.490;-122.288;2023-02-03T00:03:14;99405.50;;;14.70;27.42
29467;BME280;60968;37.490;-122.288;2023-02-03T00:06:14;99408.56;;;14.50;27.81
29467;BME280;60968;37.490;-122.288;2023-02-03T00:09:16;99416.13;;;14.26;28.79
29467;BME280;60968;37.490;-122.288;2023-02-03T00:12:17;99427.88;;;14.08;28.19
29467;BME280;60968;37.490;-122.288;2023-02-03T00:15:18;99438.72;;;13.91;29.34
29467;BME280;60968;37.490;-122.288;2023-02-03T00:18:19;99445.94;;;13.78;29.23
29467;BME280;60968;37.490;-122.288;2023-02-03T00:21:19;99443.59;;;13.66;30.05
29467;BME280;60968;37.490;-122.288;2023-02-03T00:24:20;99439.66;;;13.43;30.79
29467;BME280;60968;37.490;-122.288;2023-02-03T00:27:21;99445.91;;;13.33;31.50
29467;BME280;60968;37.490;-122.288;2023-02-03T00:30:22;99459.25;;;13.17;31.47
29467;BME280;60968;37.490;-122.288;2023-02-03T00:33:23;99459.47;;;13.07;32.10
29467;BME280;60968;37.490;-122.288;2023-02-03T00:36:24;99448.34;;;12.95;32.33
29467;BME280;60968;37.490;-122.288;2023-02-03T00:39:25;99452.75;;;12.90;30.42
29467;BME280;60968;37.490;-122.288;2023-02-03T00:42:26;99453.69;;;12.86;30.66
29467;BME280;60968;37.490;-122.288;2023-02-03T00:45:27;99453.78;;;12.81;29.91
29467;BME280;60968;37.490;-122.288;2023-02-03T00:48:28;99448.59;;;12.80;29.67
29467;BME280;60968;37.490;-122.288;2023-02-03T00:51:29;99442.56;;;12.75;28.68
29467;BME280;60968;37.490;-122.288;2023-02-03T00:54:30;99438.28;;;12.69;27.57
29467;BME280;60968;37.490;-122.288;2023-02-03T00:57:31;99438.34;;;12.66;28.08
29467;BME280;60968;37.490;-122.288;2023-02-03T01:00:32;99448.09;;;12.56;28.27
29467;BME280;60968;37.490;-122.288;2023-02-03T01:03:33;99438.50;;;12.55;27.48
29467;BME280;60968;37.490;-122.288;2023-02-03T01:06:34;99428.16;;;12.49;27.59
29467;BME280;60968;37.490;-122.288;2023-02-03T01:09:35;99429.13;;;12.43;27.22
29467;BME280;60968;37.490;-122.288;2023-02-03T01:12:37;99422.94;;;12.46;27.05
29467;BME280;60968;37.490;-122.288;2023-02-03T01:15:47;99407.44;;;12.37;27.75
29467;BME280;60968;37.490;-122.288;2023-02-03T01:18:49;99401.41;;;12.31;27.63
29467;BME280;60968;37.490;-122.288;2023-02-03T01:21:50;99398.81;;;12.30;27.29
29467;BME280;60968;37.490;-122.288;2023-02-03T01:24:51;99395.41;;;12.23;28.15
29467;BME280;60968;37.490;-122.288;2023-02-03T01:27:51;99402.47;;;12.20;28.97
29467;BME280;60968;37.490;-122.288;2023-02-03T01:30:52;99416.47;;;12.14;30.52
29467;BME280;60968;37.490;-122.288;2023-02-03T01:33:54;99414.66;;;12.17;28.88
29467;BME280;60968;37.490;-122.288;2023-02-03T01:36:55;99412.06;;;12.16;30.33
29467;BME280;60968;37.490;-122.288;2023-02-03T01:39:57;99411.28;;;12.12;29.95
29467;BME280;60968;37.490;-122.288;2023-02-03T01:42:58;99391.31;;;12.08;31.89
29467;BME280;60968;37.490;-122.288;2023-02-03T01:46:01;99405.31;;;11.99;31.92
29467;BME280;60968;37.490;-122.288;2023-02-03T01:49:12;99422.53;;;12.14;29.12
29467;BME280;60968;37.490;-122.288;2023-02-03T01:52:14;99416.50;;;12.11;28.93
29467;BME280;60968;37.490;-122.288;2023-02-03T01:55:19;99405.00;;;12.24;28.48
29467;BME280;60968;37.490;-122.288;2023-02-03T01:58:25;99410.16;;;12.27;27.79
29467;BME280;60968;37.490;-122.288;2023-02-03T02:01:29;99424.03;;;12.32;25.91
29467;BME280;60968;37.490;-122.288;2023-02-03T02:04:52;99416.97;;;12.39;28.73
29467;BME280;60968;37.490;-122.288;2023-02-03T02:07:57;99415.41;;;12.26;31.02
29467;BME280;60968;37.490;-122.288;2023-02-03T02:11:02;99411.28;;;12.09;33.09
29467;BME280;60968;37.490;-122.288;2023-02-03T02:14:03;99415.84;;;11.92;36.69
29467;BME280;60968;37.490;-122.288;2023-02-03T02:20:48;99396.47;;;12.11;29.77
29467;BME280;60968;37.490;-122.288;2023-02-03T02:24:19;99393.72;;;12.19;29.46
29467;BME280;60968;37.490;-122.288;2023-02-03T02:40:53;99382.44;;;12.18;26.69
29467;BME280;60968;37.490;-122.288;2023-02-03T02:44:11;99391.16;;;12.17;26.50
29467;BME280;60968;37.490;-122.288;2023-02-03T02:47:24;99386.81;;;12.15;26.75
29467;BME280;60968;37.490;-122.288;2023-02-03T02:50:28;99382.56;;;12.09;27.49
29467;BME280;60968;37.490;-122.288;2023-02-03T02:53:39;99378.25;;;12.05;26.93
29467;BME280;60968;37.490;-122.288;2023-02-03T02:56:42;99366.09;;;12.04;26.06
29467;BME280;60968;37.490;-122.288;2023-02-03T02:59:46;99369.41;;;12.17;25.49
29467;BME280;60968;37.490;-122.288;2023-02-03T03:02:47;99357.00;;;12.30;24.24
29467;BME280;60968;37.490;-122.288;2023-02-03T03:06:02;99350.75;;;12.40;23.86
29467;BME280;60968;37.490;-122.288;2023-02-03T03:09:30;99354.25;;;12.39;24.47
29467;BME280;60968;37.490;-122.288;2023-02-03T03:12:39;99359.50;;;12.36;24.68
29467;BME280;60968;37.490;-122.288;2023-02-03T03:15:43;99367.34;;;12.38;24.06
29467;BME280;60968;37.490;-122.288;2023-02-03T03:18:58;99370.75;;;12.43;24.05
29467;BME280;60968;37.490;-122.288;2023-02-03T03:22:03;99361.97;;;12.47;22.92
29467;BME280;60968;37.490;-122.288;2023-02-03T03:25:19;99367.84;;;12.60;22.72
29467;BME280;60968;37.490;-122.288;2023-02-03T03:28:29;99360.91;;;12.57;23.40
29467;BME280;60968;37.490;-122.288;2023-02-03T03:31:33;99364.50;;;12.51;22.84
29467;BME280;60968;37.490;-122.288;2023-02-03T03:34:34;99367.13;;;12.50;23.19
29467;BME280;60968;37.490;-122.288;2023-02-03T03:37:40;99376.69;;;12.52;22.79
29467;BME280;60968;37.490;-122.288;2023-02-03T03:40:50;99377.41;;;12.61;22.60
29467;BME280;60968;37.490;-122.288;2023-02-03T03:43:55;99380.94;;;12.58;22.93
29467;BME280;60968;37.490;-122.288;2023-02-03T03:47:16;99378.34;;;12.57;22.76
29467;BME280;60968;37.490;-122.288;2023-02-03T03:50:28;99382.75;;;12.53;22.54
29467;BME280;60968;37.490;-122.288;2023-02-03T03:53:33;99367.03;;;12.58;22.51
29467;BME280;60968;37.490;-122.288;2023-02-03T03:56:58;99374.75;;;12.64;22.48
29467;BME280;60968;37.490;-122.288;2023-02-03T04:00:03;99369.69;;;12.55;23.43
29467;BME280;60968;37.490;-122.288;2023-02-03T04:03:14;99361.22;;;12.39;23.88
29467;BME280;60968;37.490;-122.288;2023-02-03T04:06:16;99364.75;;;12.38;23.62
29467;BME280;60968;37.490;-122.288;2023-02-03T04:09:20;99351.75;;;12.31;23.86
29467;BME280;60968;37.490;-122.288;2023-02-03T04:12:22;99356.03;;;12.35;23.43
29467;BME280;60968;37.490;-122.288;2023-02-03T04:15:23;99369.19;;;12.31;23.81
29467;BME280;60968;37.490;-122.288;2023-02-03T04:18:24;99361.47;;;12.22;24.42
29467;BME280;60968;37.490;-122.288;2023-02-03T04:21:25;99371.03;;;12.24;24.29
29467;BME280;60968;37.490;-122.288;2023-02-03T04:24:26;99352.84;;;12.16;24.89
29467;BME280;60968;37.490;-122.288;2023-02-03T04:27:27;99354.63;;;12.14;24.88
29467;BME280;60968;37.490;-122.288;2023-02-03T04:30:27;99358.13;;;12.13;24.58
29467;BME280;60968;37.490;-122.288;2023-02-03T04:33:29;99358.16;;;12.12;24.87
29467;BME280;60968;37.490;-122.288;2023-02-03T04:36:29;99365.19;;;12.08;25.06
29467;BME280;60968;37.490;-122.288;2023-02-03T04:39:31;99365.34;;;11.96;25.77
29467;BME280;60968;37.490;-122.288;2023-02-03T04:42:32;99367.09;;;11.94;25.27
29467;BME280;60968;37.490;-122.288;2023-02-03T04:45:36;99371.50;;;11.89;25.44
29467;BME280;60968;37.490;-122.288;2023-02-03T04:48:36;99369.78;;;11.88;26.05
29467;BME280;60968;37.490;-122.288;2023-02-03T04:51:37;99367.16;;;11.89;25.55
29467;BME280;60968;37.490;-122.288;2023-02-03T04:54:39;99364.50;;;11.94;25.59
29467;BME280;60968;37.490;-122.288;2023-02-03T04:57:40;99355.00;;;11.87;25.99
29467;BME280;60968;37.490;-122.288;2023-02-03T05:00:41;99361.91;;;11.89;26.13
29467;BME280;60968;37.490;-122.288;2023-02-03T05:03:42;99365.44;;;11.87;26.47
29467;BME280;60968;37.490;-122.288;2023-02-03T05:06:43;99357.59;;;11.87;26.23
29467;BME280;60968;37.490;-122.288;2023-02-03T05:09:44;99348.06;;;11.84;26.73
29467;BME280;60968;37.490;-122.288;2023-02-03T05:12:45;99348.94;;;11.84;26.58
29467;BME280;60968;37.490;-122.288;2023-02-03T05:15:46;99343.72;;;11.84;27.50
29467;BME280;60968;37.490;-122.288;2023-02-03T05:18:49;99343.78;;;11.81;28.14
29467;BME280;60968;37.490;-122.288;2023-02-03T05:21:50;99325.50;;;11.78;27.61
29467;BME280;60968;37.490;-122.288;2023-02-03T05:24:51;99324.75;;;11.72;28.56
29467;BME280;60968;37.490;-122.288;2023-02-03T05:27:55;99335.16;;;11.75;28.76
29467;BME280;60968;37.490;-122.288;2023-02-03T05:31:00;99333.31;;;11.81;28.62
29467;BME280;60968;37.490;-122.288;2023-02-03T05:34:01;99327.34;;;11.73;29.20
29467;BME280;60968;37.490;-122.288;2023-02-03T05:37:02;99320.47;;;11.67;29.41
29467;BME280;60968;37.490;-122.288;2023-02-03T05:40:03;99322.28;;;11.61;29.99
29467;BME280;60968;37.490;-122.288;2023-02-03T05:43:04;99331.84;;;11.62;29.78
29467;BME280;60968;37.490;-122.288;2023-02-03T05:46:06;99327.56;;;11.58;29.75
29467;BME280;60968;37.490;-122.288;2023-02-03T05:49:10;99331.00;;;11.58;29.70
29467;BME280;60968;37.490;-122.288;2023-02-03T05:52:11;99330.13;;;11.59;29.86
29467;BME280;60968;37.490;-122.288;2023-02-03T05:55:11;99337.16;;;11.54;30.17
29467;BME280;60968;37.490;-122.288;2023-02-03T05:58:12;99344.13;;;11.54;30.08
29467;BME280;60968;37.490;-122.288;2023-02-03T06:01:13;99345.00;;;11.53;30.38
29467;BME280;60968;37.490;-122.288;2023-02-03T06:04:14;99343.25;;;11.53;29.91
29467;BME280;60968;37.490;-122.288;2023-02-03T06:07:18;99353.78;;;11.45;30.55
29467;BME280;60968;37.490;-122.288;2023-02-03T06:10:25;99359.09;;;11.39;31.07
29467;BME280;60968;37.490;-122.288;2023-02-03T06:13:26;99372.06;;;11.45;30.36
29467;BME280;60968;37.490;-122.288;2023-02-03T06:16:28;99369.50;;;11.42;31.10
29467;BME280;60968;37.490;-122.288;2023-02-03T06:19:29;99366.09;;;11.36;31.11
29467;BME280;60968;37.490;-122.288;2023-02-03T06:22:30;99371.38;;;11.31;31.51
29467;BME280;60968;37.490;-122.288;2023-02-03T06:25:31;99366.09;;;11.34;30.54
29467;BME280;60968;37.490;-122.288;2023-02-03T06:28:32;99364.38;;;11.33;31.38
29467;BME280;60968;37.490;-122.288;2023-02-03T06:31:32;99359.16;;;11.31;31.11
29467;BME280;60968;37.490;-122.288;2023-02-03T06:34:33;99361.84;;;11.27;31.95
29467;BME280;60968;37.490;-122.288;2023-02-03T06:37:34;99365.34;;;11.24;31.66
29467;BME280;60968;37.490;-122.288;2023-02-03T06:40:35;99377.59;;;11.16;32.60
29467;BME280;60968;37.490;-122.288;2023-02-03T06:43:36;99388.91;;;11.18;32.16
29467;BME280;60968;37.490;-122.288;2023-02-03T06:46:37;99385.38;;;11.19;32.92
29467;BME280;60968;37.490;-122.288;2023-02-03T06:49:38;99395.00;;;11.15;33.06
29467;BME280;60968;37.490;-122.288;2023-02-03T06:52:39;99397.63;;;11.15;32.54
29467;BME280;60968;37.490;-122.288;2023-02-03T06:55:40;99401.03;;;11.21;32.04
29467;BME280;60968;37.490;-122.288;2023-02-03T06:58:40;99388.88;;;11.20;32.83
29467;BME280;60968;37.490;-122.288;2023-02-03T07:01:41;99386.91;;;11.39;33.22
29467;BME280;60968;37.490;-122.288;2023-02-03T07:04:42;99385.00;;;11.56;32.97
29467;BME280;60968;37.490;-122.288;2023-02-03T07:07:43;99377.00;;;11.67;32.15
29467;BME280;60968;37.490;-122.288;2023-02-03T07:10:44;99380.63;;;11.57;32.74
29467;BME280;60968;37.490;-122.288;2023-02-03T07:13:45;99369.59;;;11.31;33.16
29467;BME280;60968;37.490;-122.288;2023-02-03T07:16:45;99375.84;;;11.16;33.12
29467;BME280;60968;37.490;-122.288;2023-02-03T07:19:46;99394.06;;;11.23;32.52
29467;BME280;60968;37.490;-122.288;2023-02-03T07:22:59;99391.50;;;11.20;32.44
29467;BME280;60968;37.490;-122.288;2023-02-03T07:26:04;99400.19;;;11.19;32.27
29467;BME280;60968;37.490;-122.288;2023-02-03T07:29:06;99399.34;;;11.15;32.93
29467;BME280;60968;37.490;-122.288;2023-02-03T07:32:07;99394.97;;;11.19;32.28
29467;BME280;60968;37.490;-122.288;2023-02-03T07:35:07;99384.59;;;11.11;33.25
29467;BME280;60968;37.490;-122.288;2023-02-03T07:38:08;99395.00;;;11.15;32.19
29467;BME280;60968;37.490;-122.288;2023-02-03T07:41:09;99406.31;;;11.13;32.38
29467;BME280;60968;37.490;-122.288;2023-02-03T07:44:10;99403.75;;;11.10;32.54
29467;BME280;60968;37.490;-122.288;2023-02-03T07:47:11;99387.25;;;11.06;32.75
29467;BME280;60968;37.490;-122.288;2023-02-03T07:50:12;99394.25;;;11.04;32.62
29467;BME280;60968;37.490;-122.288;2023-02-03T07:53:13;99390.69;;;11.11;31.48
29467;BME280;60968;37.490;-122.288;2023-02-03T07:56:14;99393.28;;;11.14;32.30
29467;BME280;60968;37.490;-122.288;2023-02-03T07:59:16;99394.19;;;11.10;32.15
29467;BME280;60968;37.490;-122.288;2023-02-03T08:02:16;99400.31;;;11.06;31.63
29467;BME280;60968;37.490;-122.288;2023-02-03T08:05:18;99389.03;;;11.04;32.67
29467;BME280;60968;37.490;-122.288;2023-02-03T08:08:19;99382.84;;;11.13;32.02
29467;BME280;60968;37.490;-122.288;2023-02-03T08:11:20;99385.50;;;11.10;32.17
29467;BME280;60968;37.490;-122.288;2023-02-03T08:14:21;99373.31;;;11.10;32.00
29467;BME280;60968;37.490;-122.288;2023-02-03T08:17:21;99363.81;;;11.05;32.21
29467;BME280;60968;37.490;-122.288;2023-02-03T08:20:22;99356.00;;;11.05;31.69
29467;BME280;60968;37.490;-122.288;2023-02-03T08:23:23;99356.00;;;11.03;31.66
29467;BME280;60968;37.490;-122.288;2023-02-03T08:26:24;99357.69;;;11.09;31.73
29467;BME280;60968;37.490;-122.288;2023-02-03T08:29:25;99354.19;;;11.11;31.55
29467;BME280;60968;37.490;-122.288;2023-02-03T08:32:26;99355.81;;;11.20;30.75
29467;BME280;60968;37.490;-122.288;2023-02-03T08:35:27;99342.03;;;11.10;31.50
29467;BME280;60968;37.490;-122.288;2023-02-03T08:38:28;99329.09;;;11.03;31.45
29467;BME280;60968;37.490;-122.288;2023-02-03T08:41:29;99329.94;;;11.03;30.88
29467;BME280;60968;37.490;-122.288;2023-02-03T08:44:31;99314.28;;;11.03;31.31
29467;BME280;60968;37.490;-122.288;2023-02-03T08:47:32;99343.88;;;11.01;31.36
29467;BME280;60968;37.490;-122.288;2023-02-03T08:50:33;99325.63;;;11.01;31.67
29467;BME280;60968;37.490;-122.288;2023-02-03T08:53:34;99334.31;;;10.98;31.34
29467;BME280;60968;37.490;-122.288;2023-02-03T08:56:35;99330.91;;;10.94;31.55
29467;BME280;60968;37.490;-122.288;2023-02-03T08:59:40;99333.53;;;10.93;31.74
29467;BME280;60968;37.490;-122.288;2023-02-03T09:02:41;99324.88;;;10.89;31.80
29467;BME280;60968;37.490;-122.288;2023-02-03T09:05:42;99317.06;;;10.88;32.28
29467;BME280;60968;37.490;-122.288;2023-02-03T09:08:44;99317.94;;;10.87;32.68
29467;BME280;60968;37.490;-122.288;2023-02-03T09:11:45;99321.38;;;10.90;32.94
29467;BME280;60968;37.490;-122.288;2023-02-03T09:14:46;99330.94;;;10.90;32.77
29467;BME280;60968;37.490;-122.288;2023-02-03T09:17:47;99329.19;;;10.92;32.80
29467;BME280;60968;37.490;-122.288;2023-02-03T09:20:48;99326.59;;;10.92;33.07
29467;BME280;60968;37.490;-122.288;2023-02-03T09:23:49;99323.19;;;10.84;33.39
29467;BME280;60968;37.490;-122.288;2023-02-03T09:26:50;99319.75;;;10.81;34.41
29467;BME280;60968;37.490;-122.288;2023-02-03T09:29:52;99324.91;;;10.85;35.45
29467;BME280;60968;37.490;-122.288;2023-02-03T09:33:14;99332.72;;;10.86;35.47
29467;BME280;60968;37.490;-122.288;2023-02-03T09:36:18;99328.34;;;10.87;35.26
29467;BME280;60968;37.490;-122.288;2023-02-03T09:39:18;99321.50;;;10.79;36.49
29467;BME280;60968;37.490;-122.288;2023-02-03T09:46:10;99315.44;;;10.77;37.71
29467;BME280;60968;37.490;-122.288;2023-02-03T09:52:30;99306.88;;;10.63;38.23
29467;BME280;60968;37.490;-122.288;2023-02-03T09:55:42;99297.34;;;10.63;40.48
29467;BME280;60968;37.490;-122.288;2023-02-03T09:58:43;99294.75;;;10.59;39.74
29467;BME280;60968;37.490;-122.288;2023-02-03T10:05:24;99299.19;;;10.47;40.15
29467;BME280;60968;37.490;-122.288;2023-02-03T10:08:35;99311.38;;;10.45;39.89
29467;BME280;60968;37.490;-122.288;2023-02-03T10:12:13;99297.53;;;10.39;39.84
29467;BME280;60968;37.490;-122.288;2023-02-03T10:18:30;99301.03;;;10.36;40.12
29467;BME280;60968;37.490;-122.288;2023-02-03T10:24:40;99303.53;;;10.50;40.27
29467;BME280;60968;37.490;-122.288;2023-02-03T10:27:43;99287.06;;;10.48;40.59
29467;BME280;60968;37.490;-122.288;2023-02-03T10:31:01;99289.69;;;10.46;41.00
29467;BME280;60968;37.490;-122.288;2023-02-03T10:34:19;99276.59;;;10.53;41.75
29467;BME280;60968;37.490;-122.288;2023-02-03T10:40:26;99263.44;;;10.65;39.78
29467;BME280;60968;37.490;-122.288;2023-02-03T10:43:29;99266.00;;;10.68;40.34
29467;BME280;60968;37.490;-122.288;2023-02-03T10:46:34;99265.94;;;10.73;39.59
29467;BME280;60968;37.490;-122.288;2023-02-03T10:49:37;99277.22;;;10.76;40.19
29467;BME280;60968;37.490;-122.288;2023-02-03T10:52:38;99277.28;;;10.72;40.41
29467;BME280;60968;37.490;-122.288;2023-02-03T10:55:39;99262.53;;;10.69;40.80
29467;BME280;60968;37.490;-122.288;2023-02-03T10:58:47;99264.16;;;10.78;40.56
29467;BME280;60968;37.490;-122.288;2023-02-03T11:01:48;99250.28;;;10.77;41.44
29467;BME280;60968;37.490;-122.288;2023-02-03T11:05:25;99273.75;;;10.77;43.00
29467;BME280;60968;37.490;-122.288;2023-02-03T11:08:29;99283.25;;;10.78;43.56
29467;BME280;60968;37.490;-122.288;2023-02-03T11:11:31;99295.38;;;10.84;43.91
29467;BME280;60968;37.490;-122.288;2023-02-03T11:14:36;99297.13;;;10.84;44.44
29467;BME280;60968;37.490;-122.288;2023-02-03T11:17:42;99278.88;;;10.84;44.54
29467;BME280;60968;37.490;-122.288;2023-02-03T11:20:44;99283.22;;;10.83;45.64
29467;BME280;60968;37.490;-122.288;2023-02-03T11:23:59;99285.84;;;10.81;47.13
29467;BME280;60968;37.490;-122.288;2023-02-03T11:27:13;99279.88;;;10.70;49.74
29467;BME280;60968;37.490;-122.288;2023-02-03T11:30:18;99281.69;;;10.65;49.98
29467;BME280;60968;37.490;-122.288;2023-02-03T11:33:23;99283.41;;;10.66;49.83
29467;BME280;60968;37.490;-122.288;2023-02-03T11:36:29;99276.44;;;10.67;48.81
29467;BME280;60968;37.490;-122.288;2023-02-03T11:39:30;99281.66;;;10.67;49.15
29467;BME280;60968;37.490;-122.288;2023-02-03T11:42:32;99293.03;;;10.59;52.07
29467;BME280;60968;37.490;-122.288;2023-02-03T11:45:52;99278.47;;;10.38;59.52
29467;BME280;60968;37.490;-122.288;2023-02-03T11:49:07;99286.50;;;10.06;65.82
29467;BME280;60968;37.490;-122.288;2023-02-03T11:56:09;99312.00;;;9.53;74.50
29467;BME280;60968;37.490;-122.288;2023-02-03T12:02:39;99311.09;;;9.60;71.97
29467;BME280;60968;37.490;-122.288;2023-02-03T12:16:26;99382.31;;;9.28;88.49
29467;BME280;60968;37.490;-122.288;2023-02-03T12:23:14;99349.41;;;9.16;97.40
29467;BME280;60968;37.490;-122.288;2023-02-03T12:29:26;99346.00;;;8.92;100.00
29467;BME280;60968;37.490;-122.288;2023-02-03T12:32:39;99346.88;;;8.87;100.00
29467;BME280;60968;37.490;-122.288;2023-02-03T12:35:52;99333.91;;;8.74;100.00
29467;BME280;60968;37.490;-122.288;2023-02-03T12:39:00;99339.13;;;8.65;100.00
29467;BME280;60968;37.490;-122.288;2023-02-03T12:42:06;99344.31;;;8.56;100.00
29467;BME280;60968;37.490;-122.288;2023-02-03T12:45:22;99341.75;;;8.50;100.00
29467;BME280;60968;37.490;-122.288;2023-02-03T12:51:52;99335.63;;;8.35;100.00
29467;BME280;60968;37.490;-122.288;2023-02-03T13:01:13;99336.50;;;8.17;100.00
29467;BME280;60968;37.490;-122.288;2023-02-03T13:07:37;99341.69;;;8.03;100.00
29467;BME280;60968;37.490;-122.288;2023-02-03T13:10:49;99339.06;;;7.96;100.00
29467;BME280;60968;37.490;-122.288;2023-02-03T13:14:41;99350.31;;;7.96;100.00
29467;BME280;60968;37.490;-122.288;2023-02-03T13:17:37;99348.59;;;7.92;100.00
29467;BME280;60968;37.490;-122.288;2023-02-03T13:20:41;99340.78;;;7.77;100.00
29467;BME280;60968;37.490;-122.288;2023-02-03T13:23:44;99342.47;;;7.73;100.00
29467;BME280;60968;37.490;-122.288;2023-02-03T13:30:17;99354.56;;;7.66;100.00
29467;BME280;60968;37.490;-122.288;2023-02-03T13:33:54;99348.50;;;7.64;100.00
29467;BME280;60968;37.490;-122.288;2023-02-03T13:37:40;99346.75;;;7.60;100.00
29467;BME280;60968;37.490;-122.288;2023-02-03T13:44:01;99350.22;;;7.62;100.00
29467;BME280;60968;37.490;-122.288;2023-02-03T13:47:03;99345.03;;;7.62;100.00
29467;BME280;60968;37.490;-122.288;2023-02-03T13:50:14;99359.72;;;7.63;100.00
29467;BME280;60968;37.490;-122.288;2023-02-03T13:53:20;99350.22;;;7.59;100.00
29467;BME280;60968;37.490;-122.288;2023-02-03T13:56:23;99364.91;;;7.59;100.00
29467;BME280;60968;37.490;-122.288;2023-02-03T13:59:27;99373.56;;;7.59;100.00
29467;BME280;60968;37.490;-122.288;2023-02-03T14:02:37;99377.88;;;7.60;100.00
29467;BME280;60968;37.490;-122.288;2023-02-03T14:05:47;99388.25;;;7.63;100.00
29467;BME280;60968;37.490;-122.288;2023-02-03T14:08:48;99410.75;;;7.63;100.00
29467;BME280;60968;37.490;-122.288;2023-02-03T14:11:51;99441.88;;;7.67;100.00
29467;BME280;60968;37.490;-122.288;2023-02-03T14:21:08;99447.19;;;7.92;100.00
29467;BME280;60968;37.490;-122.288;2023-02-03T14:24:11;99451.53;;;7.95;100.00
29467;BME280;60968;37.490;-122.288;2023-02-03T14:27:20;99443.75;;;8.01;100.00
29467;BME280;60968;37.490;-122.288;2023-02-03T14:30:23;99453.28;;;8.03;100.00
29467;BME280;60968;37.490;-122.288;2023-02-03T14:33:44;99463.66;;;8.05;100.00
29467;BME280;60968;37.490;-122.288;2023-02-03T14:36:48;99455.03;;;8.11;100.00
29467;BME280;60968;37.490;-122.288;2023-02-03T14:43:31;99448.94;;;8.08;100.00
29467;BME280;60968;37.490;-122.288;2023-02-03T14:50:00;99454.97;;;7.98;100.00
29467;BME280;60968;37.490;-122.288;2023-02-03T14:59:55;99446.28;;;7.87;100.00
29467;BME280;60968;37.490;-122.288;2023-02-03T15:06:37;99459.25;;;7.82;100.00
29467;BME280;60968;37.490;-122.288;2023-02-03T15:09:41;99477.34;;;7.65;100.00
29467;BME280;60968;37.490;-122.288;2023-02-03T15:12:47;99489.41;;;7.62;100.00
29467;BME280;60968;37.490;-122.288;2023-02-03T15:15:51;99500.59;;;7.53;100.00
29467;BME280;60968;37.490;-122.288;2023-02-03T15:18:57;99496.25;;;7.50;100.00
29467;BME280;60968;37.490;-122.288;2023-02-03T15:21:59;99514.34;;;7.41;100.00
29467;BME280;60968;37.490;-122.288;2023-02-03T15:25:02;99514.34;;;7.41;100.00
29467;BME280;60968;37.490;-122.288;2023-02-03T15:28:20;99507.44;;;7.37;100.00
29467;BME280;60968;37.490;-122.288;2023-02-03T15:31:32;99504.78;;;7.31;100.00
29467;BME280;60968;37.490;-122.288;2023-02-03T15:34:43;99500.47;;;7.31;100.00
29467;BME280;60968;37.490;-122.288;2023-02-03T15:37:47;99497.00;;;7.34;100.00
29467;BME280;60968;37.490;-122.288;2023-02-03T15:40:52;99494.38;;;7.28;100.00
29467;BME280;60968;37.490;-122.288;2023-02-03T15:44:01;99503.00;;;7.25;100.00
29467;BME280;60968;37.490;-122.288;2023-02-03T15:47:04;99503.03;;;7.30;100.00
29467;BME280;60968;37.490;-122.288;2023-02-03T15:50:32;99500.41;;;7.24;100.00
29467;BME280;60968;37.490;-122.288;2023-02-03T15:56:57;99500.50;;;7.34;100.00
29467;BME280;60968;37.490;-122.288;2023-02-03T16:00:08;99504.78;;;7.34;100.00
29467;BME280;60968;37.490;-122.288;2023-02-03T16:06:38;99506.50;;;7.32;100.00
29467;BME280;60968;37.490;-122.288;2023-02-03T16:09:40;99506.50;;;7.32;100.00
29467;BME280;60968;37.490;-122.288;2023-02-03T16:12:41;99521.22;;;7.34;100.00
29467;BME280;60968;37.490;-122.288;2023-02-03T16:15:43;99529.03;;;7.39;100.00
29467;BME280;60968;37.490;-122.288;2023-02-03T16:21:56;99529.94;;;7.46;100.00
29467;BME280;60968;37.490;-122.288;2023-02-03T16:25:21;99536.91;;;7.54;100.00
29467;BME280;60968;37.490;-122.288;2023-02-03T16:28:23;99540.34;;;7.55;100.00
29467;BME280;60968;37.490;-122.288;2023-02-03T16:31:23;99540.41;;;7.60;100.00
29467;BME280;60968;37.490;-122.288;2023-02-03T16:34:25;99536.09;;;7.65;100.00
29467;BME280;60968;37.490;-122.288;2023-02-03T16:37:34;99546.53;;;7.69;100.00
29467;BME280;60968;37.490;-122.288;2023-02-03T16:40:45;99550.81;;;7.67;100.00
29467;BME280;60968;37.490;-122.288;2023-02-03T16:43:47;99550.81;;;7.66;100.00
29467;BME280;60968;37.490;-122.288;2023-02-03T16:46:48;99560.34;;;7.70;100.00
29467;BME280;60968;37.490;-122.288;2023-02-03T16:49:49;99558.63;;;7.72;100.00
29467;BME280;60968;37.490;-122.288;2023-02-03T16:52:50;99542.22;;;7.78;100.00
29467;BME280;60968;37.490;-122.288;2023-02-03T16:55:53;99553.50;;;7.78;100.00
29467;BME280;60968;37.490;-122.288;2023-02-03T16:58:54;99552.59;;;7.78;100.00
29467;BME280;60968;37.490;-122.288;2023-02-03T17:01:56;99542.22;;;7.73;100.00
29467;BME280;60968;37.490;-122.288;2023-02-03T17:04:56;99540.50;;;7.73;100.00
29467;BME280;60968;37.490;-122.288;2023-02-03T17:07:58;99545.63;;;7.69;100.00
29467;BME280;60968;37.490;-122.288;2023-02-03T17:11:07;99554.25;;;7.66;100.00
29467;BME280;60968;37.490;-122.288;2023-02-03T17:14:09;99562.03;;;7.66;100.00
29467;BME280;60968;37.490;-122.288;2023-02-03T17:17:10;99578.50;;;7.68;100.00
29467;BME280;60968;37.490;-122.288;2023-02-03T17:20:11;99564.59;;;7.57;100.00
29467;BME280;60968;37.490;-122.288;2023-02-03T17:23:12;99555.91;;;7.55;100.00
29467;BME280;60968;37.490;-122.288;2023-02-03T17:26:13;99556.81;;;7.54;100.00
29467;BME280;60968;37.490;-122.288;2023-02-03T17:29:14;99560.22;;;7.50;100.00
29467;BME280;60968;37.490;-122.288;2023-02-03T17:32:15;99567.91;;;7.37;100.00
29467;BME280;60968;37.490;-122.288;2023-02-03T17:35:16;99572.16;;;7.31;100.00